Terminal Aerodrome Forecast
Issued by NWS Cleveland, OH

Home | Current Version | Previous Version | Text Only | Print | Product List | Glossary Off
Versions: 1 2 3 4 5 6 7 8 9 10 11 12 13 14 15 16 17 18 19

000
FTUS41 KCLE 011724
TAFERI
TAF
KERI 011724Z 0118/0218 24015G25KT P6SM BKN025 OVC040
      TEMPO 0118/0122 3SM -SHSNRA BKN015 OVC025
     FM012200 24015G25KT 6SM -SHSNRA BKN025 OVC040
     FM020600 25012G18KT 6SM -SHSNRA BKN018 OVC035=

USA.gov is the U.S. government's official web portal to all federal, state and local government web resources and services.